createdAt,value
2018-05-12T00:02:19.598Z,99.90
2018-05-12T00:04:47.080Z,99.90
2018-05-12T00:07:14.575Z,99.90
2018-05-12T00:09:42.859Z,99.90
2018-05-12T00:12:10.647Z,99.90
2018-05-12T00:14:38.126Z,99.90
2018-05-12T00:17:05.628Z,99.90
2018-05-12T00:19:33.873Z,99.90
2018-05-12T00:22:01.360Z,99.90
2018-05-12T00:24:29.880Z,99.90
2018-05-12T00:26:57.356Z,99.90
2018-05-12T00:29:24.850Z,99.90
2018-05-12T00:31:53.132Z,99.90
2018-05-12T00:34:21.653Z,99.90
2018-05-12T00:36:49.131Z,99.90
2018-05-12T00:39:16.612Z,99.90
2018-05-12T00:41:44.428Z,99.90
2018-05-12T00:44:11.948Z,99.90
2018-05-12T00:46:40.203Z,99.90
2018-05-12T00:49:07.927Z,99.90
2018-05-12T00:51:35.416Z,99.90
2018-05-12T00:54:02.896Z,99.90
2018-05-12T00:56:31.171Z,99.90
2018-05-12T00:58:59.419Z,99.90
2018-05-12T01:01:26.895Z,99.90
2018-05-12T01:03:54.464Z,99.90
2018-05-12T01:06:22.711Z,99.90
2018-05-12T01:08:50.200Z,99.90
2018-05-12T01:11:18.448Z,99.90
2018-05-12T01:13:46.031Z,99.90
2018-05-12T01:16:14.275Z,99.90
2018-05-12T01:18:41.756Z,99.90
2018-05-12T01:21:09.251Z,99.90
2018-05-12T01:23:36.965Z,99.90
2018-05-12T01:26:04.691Z,99.90
2018-05-12T01:28:32.176Z,99.90
2018-05-12T01:30:59.914Z,99.90
2018-05-12T01:33:27.395Z,99.90
2018-05-12T01:35:54.868Z,99.90
2018-05-12T01:38:23.128Z,99.90
2018-05-12T01:40:50.644Z,99.90
2018-05-12T01:43:18.131Z,99.90
2018-05-12T01:45:45.625Z,99.90
2018-05-12T01:48:13.896Z,99.90
2018-05-12T01:50:42.879Z,99.90
2018-05-12T01:53:10.356Z,99.90
2018-05-12T01:55:38.612Z,99.90
2018-05-12T01:58:06.091Z,99.90
2018-05-12T02:00:34.347Z,99.90
2018-05-12T02:03:03.335Z,99.90
2018-05-12T02:05:30.844Z,99.90
2018-05-12T02:07:58.324Z,99.90
2018-05-12T02:10:25.808Z,99.90
2018-05-12T02:12:53.307Z,99.90
2018-05-12T02:15:20.787Z,99.90
2018-05-12T02:17:48.275Z,99.90
2018-05-12T02:20:16.007Z,99.90
2018-05-12T02:22:43.504Z,99.90
2018-05-12T02:25:11.328Z,99.90
2018-05-12T02:27:38.839Z,99.90
2018-05-12T02:30:06.325Z,99.90
2018-05-12T02:32:34.108Z,99.90
2018-05-12T02:35:01.604Z,99.90
2018-05-12T02:37:29.328Z,99.90
2018-05-12T02:39:57.461Z,99.90
2018-05-12T02:42:26.169Z,99.90
2018-05-12T02:44:53.952Z,99.90
2018-05-12T02:47:21.715Z,99.90
2018-05-12T02:49:49.196Z,99.90
2018-05-12T02:52:16.788Z,99.90
2018-05-12T02:54:45.031Z,99.90
2018-05-12T02:57:12.501Z,99.90
2018-05-12T02:59:39.995Z,99.90
2018-05-12T03:02:07.464Z,99.90
2018-05-12T03:04:34.956Z,99.90
2018-05-12T03:07:02.432Z,99.90
2018-05-12T03:09:29.941Z,99.90
2018-05-12T03:11:57.433Z,99.90
2018-05-12T03:14:25.020Z,99.90
2018-05-12T03:16:52.584Z,99.90
2018-05-12T03:19:20.829Z,99.90
2018-05-12T03:21:48.571Z,99.90
2018-05-12T03:24:16.043Z,99.90
2018-05-12T03:26:43.528Z,99.90
2018-05-12T03:29:11.096Z,99.90
2018-05-12T03:31:39.339Z,99.90
2018-05-12T03:34:06.836Z,99.90
2018-05-12T03:36:35.353Z,99.90
2018-05-12T03:39:02.844Z,99.90
2018-05-12T03:41:30.328Z,99.90
2018-05-12T03:43:58.563Z,99.90
2018-05-12T03:46:26.059Z,99.90
2018-05-12T03:48:54.332Z,99.90
2018-05-12T03:51:22.587Z,99.90
2018-05-12T03:53:50.318Z,99.90
2018-05-12T03:56:17.933Z,99.90
2018-05-12T03:58:46.455Z,99.90
2018-05-12T04:01:13.928Z,99.90
2018-05-12T04:03:41.424Z,99.90
2018-05-12T04:06:21.216Z,99.90
2018-05-12T04:09:00.859Z,99.90
2018-05-12T04:11:40.396Z,99.90
2018-05-12T04:14:07.911Z,99.90
2018-05-12T04:16:36.159Z,99.90
2018-05-12T04:19:03.659Z,99.90
2018-05-12T04:21:31.457Z,99.90
2018-05-12T04:23:58.935Z,99.90
2018-05-12T04:26:26.435Z,99.90
2018-05-12T04:28:54.679Z,99.90
2018-05-12T04:31:22.512Z,99.90
2018-05-12T04:33:49.988Z,99.90
2018-05-12T04:36:17.459Z,99.90
2018-05-12T04:38:45.188Z,99.90
2018-05-12T04:41:12.701Z,99.90
2018-05-12T04:43:40.972Z,99.90
2018-05-12T04:46:09.220Z,99.90
2018-05-12T04:48:36.703Z,99.90
2018-05-12T04:51:04.519Z,99.90
2018-05-12T04:53:32.000Z,99.90
2018-05-12T04:55:59.595Z,99.90
2018-05-12T04:58:27.842Z,99.90
2018-05-12T05:00:55.323Z,99.90
2018-05-12T05:03:23.579Z,99.90
2018-05-12T05:05:51.819Z,99.90
2018-05-12T05:08:19.406Z,99.90
2018-05-12T05:10:47.595Z,99.90
2018-05-12T05:13:16.592Z,99.90
2018-05-12T05:15:44.083Z,99.90
2018-05-12T05:18:11.556Z,99.90
2018-05-12T05:20:39.060Z,99.90
2018-05-12T05:23:06.636Z,99.90
2018-05-12T05:25:34.883Z,99.90
2018-05-12T05:28:02.372Z,99.90
2018-05-12T05:30:30.892Z,99.90
2018-05-12T05:32:58.407Z,99.90
2018-05-12T05:35:26.655Z,99.90
2018-05-12T05:37:54.446Z,99.90
2018-05-12T05:40:21.899Z,99.90
2018-05-12T05:42:50.184Z,99.90
2018-05-12T05:45:18.449Z,99.90
2018-05-12T05:47:46.695Z,99.90
2018-05-12T05:50:14.537Z,99.90
2018-05-12T05:52:41.943Z,99.90
2018-05-12T05:55:09.427Z,99.90
2018-05-12T05:57:37.219Z,99.90
2018-05-12T06:00:04.692Z,99.90
2018-05-12T06:02:32.199Z,99.90
2018-05-12T06:05:00.716Z,99.90
2018-05-12T06:07:28.229Z,99.90
2018-05-12T06:09:56.496Z,99.90
2018-05-12T06:12:23.980Z,99.90
2018-05-12T06:14:51.527Z,99.90
2018-05-12T06:17:20.046Z,99.90
2018-05-12T06:19:47.527Z,99.90
2018-05-12T06:22:15.063Z,99.90
2018-05-12T06:24:42.839Z,99.90
2018-05-12T06:27:10.340Z,99.90
2018-05-12T06:29:38.600Z,99.90
2018-05-12T06:32:06.848Z,99.90
2018-05-12T06:34:34.595Z,99.90
2018-05-12T06:37:02.076Z,99.90
2018-05-12T06:39:29.556Z,99.90
2018-05-12T06:41:57.819Z,99.90
2018-05-12T06:44:25.567Z,99.90
2018-05-12T06:46:53.157Z,99.90
2018-05-12T06:49:20.728Z,99.90
2018-05-12T06:51:48.976Z,99.90
2018-05-12T06:54:16.832Z,99.90
2018-05-12T06:56:44.329Z,99.90
2018-05-12T06:59:12.596Z,99.90
2018-05-12T07:01:41.124Z,99.90
2018-05-12T07:04:08.616Z,99.90
2018-05-12T07:06:36.116Z,99.90
2018-05-12T07:09:03.600Z,99.90
2018-05-12T07:11:31.365Z,99.90
2018-05-12T07:13:58.844Z,99.90
2018-05-12T07:16:26.324Z,99.90
2018-05-12T07:18:53.820Z,99.90
2018-05-12T07:21:21.316Z,99.90
2018-05-12T07:23:49.056Z,99.90
2018-05-12T07:26:16.539Z,99.90
2018-05-12T07:28:44.023Z,99.90
2018-05-12T07:31:12.400Z,99.90
2018-05-12T07:33:40.742Z,99.90
2018-05-12T07:36:09.283Z,99.90
2018-05-12T07:38:38.159Z,99.90
2018-05-12T07:41:06.893Z,99.90
2018-05-12T07:43:36.485Z,99.90
2018-05-12T07:46:05.936Z,99.90
2018-05-12T07:48:35.841Z,99.90
2018-05-12T07:51:04.234Z,98.70
2018-05-12T07:53:33.257Z,99.40
2018-05-12T07:56:02.367Z,96.00
2018-05-12T07:58:30.335Z,95.90
2018-05-12T08:00:58.161Z,95.50
2018-05-12T08:03:26.952Z,95.20
2018-05-12T08:05:55.778Z,92.80
2018-05-12T08:08:23.404Z,92.90
2018-05-12T08:10:51.819Z,87.30
2018-05-12T08:13:19.479Z,87.30
2018-05-12T08:15:46.987Z,84.20
2018-05-12T08:18:14.484Z,86.60
2018-05-12T08:20:41.971Z,82.80
2018-05-12T08:23:09.472Z,84.80
2018-05-12T08:25:37.996Z,81.70
2018-05-12T08:28:05.475Z,81.70
2018-05-12T08:30:33.295Z,82.00
2018-05-12T08:33:00.839Z,79.40
2018-05-12T08:35:29.362Z,78.70
2018-05-12T08:37:56.845Z,78.70
2018-05-12T08:40:24.650Z,78.80
2018-05-12T08:42:52.091Z,80.70
2018-05-12T08:45:20.332Z,81.40
2018-05-12T08:47:47.932Z,81.20
2018-05-12T08:50:16.181Z,86.30
2018-05-12T08:52:45.203Z,84.90
2018-05-12T08:55:13.691Z,87.70
2018-05-12T08:57:41.239Z,87.80
2018-05-12T09:00:09.507Z,87.70
2018-05-12T09:02:37.755Z,89.80
2018-05-12T09:05:05.249Z,89.30
2018-05-12T09:07:33.732Z,84.20
2018-05-12T09:10:01.985Z,88.00
2018-05-12T09:12:30.284Z,86.30
2018-05-12T09:14:58.523Z,85.10
2018-05-12T09:17:26.056Z,85.10
2018-05-12T09:19:53.815Z,85.40
2018-05-12T09:22:21.300Z,84.80
2018-05-12T09:24:49.036Z,86.60
2018-05-12T09:27:16.593Z,87.80
2018-05-12T09:29:44.080Z,89.50
2018-05-12T09:32:11.571Z,84.80
2018-05-12T09:34:40.091Z,83.30
2018-05-12T09:37:07.635Z,83.30
2018-05-12T09:39:35.269Z,85.70
2018-05-12T09:42:02.790Z,83.70
2018-05-12T09:44:30.435Z,85.80
2018-05-12T09:46:57.968Z,84.60
2018-05-12T09:49:27.392Z,76.00
2018-05-12T09:51:54.875Z,76.60
2018-05-12T09:54:22.364Z,74.30
2018-05-12T09:56:50.644Z,74.00
2018-05-12T09:59:18.903Z,72.10
2018-05-12T10:01:46.620Z,72.00
2018-05-12T10:04:14.135Z,68.80
2018-05-12T10:06:42.388Z,74.90
2018-05-12T10:09:09.860Z,74.90
2018-05-12T10:11:37.428Z,76.80
2018-05-12T10:14:05.705Z,79.60
2018-05-12T10:16:33.976Z,77.40
2018-05-12T10:19:02.501Z,79.00
2018-05-12T10:21:29.982Z,78.90
2018-05-12T10:23:57.509Z,79.40
2018-05-12T10:26:24.992Z,74.10
2018-05-12T10:28:52.536Z,70.80
2018-05-12T10:31:20.029Z,73.20
2018-05-12T10:33:47.509Z,71.00
2018-05-12T10:36:15.780Z,68.70
2018-05-12T10:38:44.052Z,66.70
2018-05-12T10:41:12.370Z,70.50
2018-05-12T10:43:39.860Z,69.70
2018-05-12T10:46:07.344Z,65.30
2018-05-12T10:48:35.612Z,66.50
2018-05-12T10:51:04.928Z,70.80
2018-05-12T10:53:33.195Z,72.20
2018-05-12T10:56:01.476Z,72.30
2018-05-12T10:58:29.715Z,71.40
2018-05-12T11:00:59.905Z,71.30
2018-05-12T11:03:27.832Z,71.80
2018-05-12T11:05:56.360Z,67.50
2018-05-12T11:08:23.850Z,67.50
2018-05-12T11:10:51.325Z,66.90
2018-05-12T11:13:19.587Z,68.80
2018-05-12T11:15:47.105Z,68.90
2018-05-12T11:18:15.327Z,68.90
2018-05-12T11:20:42.814Z,68.90
2018-05-12T11:23:10.292Z,67.50
2018-05-12T11:25:37.793Z,70.10
2018-05-12T11:28:05.271Z,69.40
2018-05-12T11:30:33.548Z,68.20
2018-05-12T11:33:01.812Z,66.40
2018-05-12T11:35:29.295Z,66.30
2018-05-12T11:37:57.087Z,63.40
2018-05-12T11:40:24.605Z,58.60
2018-05-12T11:42:53.124Z,61.40
2018-05-12T11:45:20.660Z,61.30
2018-05-12T11:47:48.199Z,58.00
2018-05-12T11:50:16.724Z,55.10
2018-05-12T11:52:44.236Z,55.10
2018-05-12T11:55:11.802Z,58.30
2018-05-12T11:57:40.071Z,58.80
2018-05-12T12:00:07.547Z,58.80
2018-05-12T12:02:35.115Z,59.40
2018-05-12T12:05:02.533Z,62.70
2018-05-12T12:07:30.357Z,57.20
2018-05-12T12:09:57.875Z,56.00
2018-05-12T12:12:26.132Z,57.70
2018-05-12T12:14:53.611Z,57.70
2018-05-12T12:17:21.880Z,55.50
2018-05-12T12:19:50.131Z,57.30
2018-05-12T12:22:17.600Z,57.30
2018-05-12T12:24:45.864Z,59.10
2018-05-12T12:27:13.336Z,59.10
2018-05-12T12:29:41.595Z,58.20
2018-05-12T12:32:09.181Z,58.20
2018-05-12T12:34:37.423Z,56.30
2018-05-12T12:37:04.920Z,56.30
2018-05-12T12:39:33.164Z,59.30
2018-05-12T12:42:00.744Z,59.20
2018-05-12T12:44:29.884Z,57.10
2018-05-12T12:46:57.364Z,57.10
2018-05-12T12:49:24.856Z,56.50
2018-05-12T12:51:53.140Z,56.80
2018-05-12T12:54:21.402Z,57.50
2018-05-12T12:56:48.880Z,57.40
2018-05-12T12:59:16.357Z,59.10
2018-05-12T13:01:43.843Z,57.40
2018-05-12T13:04:11.583Z,58.50
2018-05-12T13:06:39.075Z,57.30
2018-05-12T13:09:07.324Z,60.50
2018-05-12T13:11:34.796Z,60.50
2018-05-12T13:14:02.287Z,58.60
2018-05-12T13:16:30.532Z,59.30
2018-05-12T13:18:58.032Z,59.30
2018-05-12T13:21:26.274Z,58.40
2018-05-12T13:23:54.508Z,57.50
2018-05-12T13:26:22.024Z,57.60
2018-05-12T13:28:50.557Z,61.00
2018-05-12T13:31:18.048Z,61.10
2018-05-12T13:33:45.523Z,61.10
2018-05-12T13:36:14.048Z,59.90
2018-05-12T13:38:41.544Z,59.80
2018-05-12T13:41:09.016Z,60.50
2018-05-12T13:43:36.508Z,57.70
2018-05-12T13:46:03.992Z,60.10
2018-05-12T13:48:31.471Z,61.70
2018-05-12T13:50:59.727Z,61.20
2018-05-12T13:53:27.575Z,61.10
2018-05-12T13:55:55.226Z,61.50
2018-05-12T13:58:23.332Z,63.40
2018-05-12T14:00:50.813Z,63.30
2018-05-12T14:03:18.304Z,62.30
2018-05-12T14:05:45.790Z,62.80
2018-05-12T14:08:13.544Z,63.90
2018-05-12T14:10:41.024Z,64.20
2018-05-12T14:13:08.499Z,65.10
2018-05-12T14:15:36.324Z,63.30
2018-05-12T14:18:03.808Z,62.30
2018-05-12T14:20:31.395Z,62.10
2018-05-12T14:22:59.636Z,63.10
2018-05-12T14:25:27.107Z,63.10
2018-05-12T14:27:54.595Z,63.60
2018-05-12T14:30:23.111Z,63.10
2018-05-12T14:32:50.608Z,63.10
2018-05-12T14:35:18.083Z,63.50
2018-05-12T14:37:46.324Z,64.00
2018-05-12T14:40:13.819Z,64.00
2018-05-12T14:42:42.136Z,62.90
2018-05-12T14:45:09.649Z,62.90
2018-05-12T14:47:38.175Z,61.10
2018-05-12T14:50:05.672Z,61.10
2018-05-12T14:52:33.246Z,60.20
2018-05-12T14:55:01.509Z,61.00
2018-05-12T14:57:29.023Z,60.90
2018-05-12T14:59:56.503Z,61.10
2018-05-12T15:02:24.000Z,60.20
2018-05-12T15:04:51.552Z,61.50
2018-05-12T15:07:19.044Z,59.90
2018-05-12T15:09:46.829Z,61.50
2018-05-12T15:12:14.384Z,61.20
2018-05-12T15:14:41.864Z,61.10
2018-05-12T15:17:09.599Z,59.40
2018-05-12T15:19:37.076Z,61.10
2018-05-12T15:22:04.820Z,60.50
2018-05-12T15:24:32.291Z,60.60
2018-05-12T15:26:59.764Z,60.10
2018-05-12T15:29:27.495Z,61.10
2018-05-12T15:31:55.011Z,60.30
2018-05-12T15:34:23.263Z,60.50
2018-05-12T15:36:50.740Z,60.50
2018-05-12T15:39:19.269Z,59.60
2018-05-12T15:41:47.034Z,59.40
2018-05-12T15:44:14.610Z,58.30
2018-05-12T15:46:42.016Z,58.50
2018-05-12T15:49:10.308Z,60.50
2018-05-12T15:51:37.779Z,59.90
2018-05-12T15:54:05.268Z,60.20
2018-05-12T15:56:32.754Z,60.60
2018-05-12T15:59:01.276Z,60.50
2018-05-12T16:01:28.748Z,60.50
2018-05-12T16:03:56.239Z,59.50
2018-05-12T16:06:23.715Z,58.70
2018-05-12T16:08:51.957Z,59.80
2018-05-12T16:11:19.538Z,59.80
2018-05-12T16:13:47.786Z,59.70
2018-05-12T16:16:15.280Z,59.70
2018-05-12T16:18:43.524Z,57.80
2018-05-12T16:21:10.995Z,57.80
2018-05-12T16:23:38.483Z,58.40
2018-05-12T16:26:06.023Z,59.20
2018-05-12T16:28:34.596Z,59.20
2018-05-12T16:31:02.000Z,59.20
2018-05-12T16:33:29.472Z,59.30
2018-05-12T16:35:56.967Z,59.70
2018-05-12T16:38:25.215Z,59.30
2018-05-12T16:40:52.804Z,59.30
2018-05-12T16:43:21.080Z,59.80
2018-05-12T16:45:49.354Z,60.80
2018-05-12T16:48:17.616Z,61.10
2018-05-12T16:50:45.371Z,60.30
2018-05-12T16:53:13.447Z,62.00
2018-05-12T16:55:40.936Z,61.20
2018-05-12T16:58:09.176Z,60.60
2018-05-12T17:00:36.669Z,60.60
2018-05-12T17:03:04.912Z,61.70
2018-05-12T17:05:32.740Z,61.70
2018-05-12T17:08:00.218Z,61.80
2018-05-12T17:10:27.801Z,61.10
2018-05-12T17:12:56.641Z,61.30
2018-05-12T17:15:24.508Z,61.30
2018-05-12T17:17:52.052Z,61.30
2018-05-12T17:20:19.525Z,61.40
2018-05-12T17:22:47.292Z,61.50
2018-05-12T17:25:14.781Z,61.30
2018-05-12T17:27:42.363Z,61.30
2018-05-12T17:30:10.851Z,62.70
2018-05-12T17:32:39.094Z,62.90
2018-05-12T17:35:06.568Z,62.90
2018-05-12T17:37:34.064Z,63.80
2018-05-12T17:40:01.601Z,64.40
2018-05-12T17:42:29.859Z,63.60
2018-05-12T17:44:57.433Z,63.60
2018-05-12T17:47:25.707Z,64.70
2018-05-12T17:49:53.973Z,64.30
2018-05-12T17:52:21.449Z,64.30
2018-05-12T17:54:49.714Z,64.80
2018-05-12T17:57:18.236Z,64.80
2018-05-12T17:59:45.725Z,64.80
2018-05-12T18:02:13.221Z,64.90
2018-05-12T18:04:41.735Z,65.60
2018-05-12T18:07:09.252Z,65.50
2018-05-12T18:09:37.492Z,64.80
2018-05-12T18:12:04.987Z,64.80
2018-05-12T18:14:33.403Z,65.50
2018-05-12T18:17:00.920Z,65.40
2018-05-12T18:19:29.195Z,65.80
2018-05-12T18:21:57.636Z,66.40
2018-05-12T18:24:25.112Z,66.40
2018-05-12T18:26:52.693Z,66.90
2018-05-12T18:29:20.976Z,67.50
2018-05-12T18:31:48.583Z,67.50
2018-05-12T18:34:16.132Z,67.60
2018-05-12T18:36:43.897Z,68.10
2018-05-12T18:39:11.392Z,68.60
2018-05-12T18:41:39.320Z,69.80
2018-05-12T18:44:06.861Z,70.10
2018-05-12T18:46:34.352Z,70.30
2018-05-12T18:49:01.836Z,70.60
2018-05-12T18:51:29.394Z,70.70
2018-05-12T18:53:57.648Z,72.00
2018-05-12T18:56:25.140Z,72.00
2018-05-12T18:58:53.439Z,73.40
2018-05-12T19:01:20.960Z,73.30
2018-05-12T19:03:48.494Z,73.50
2018-05-12T19:06:15.987Z,74.50
2018-05-12T19:08:44.312Z,75.20
2018-05-12T19:11:11.826Z,75.30
2018-05-12T19:13:40.071Z,75.70
2018-05-12T19:16:07.568Z,75.80
2018-05-12T19:18:35.807Z,76.40
2018-05-12T19:21:04.057Z,76.40
2018-05-12T19:23:31.984Z,76.70
2018-05-12T19:26:00.803Z,77.00
2018-05-12T19:28:28.937Z,77.00
2018-05-12T19:30:58.101Z,77.50
2018-05-12T19:33:26.001Z,77.50
2018-05-12T19:35:55.976Z,78.80
2018-05-12T19:38:23.468Z,78.90
2018-05-12T19:40:51.852Z,80.70
2018-05-12T19:43:20.095Z,80.90
2018-05-12T19:45:47.591Z,80.90
2018-05-12T19:48:15.840Z,81.30
2018-05-12T19:50:43.316Z,81.20
2018-05-12T19:53:11.841Z,83.50
2018-05-12T19:55:39.380Z,83.60
2018-05-12T19:58:06.888Z,83.50
2018-05-12T20:00:34.368Z,84.50
2018-05-12T20:03:02.612Z,85.90
2018-05-12T20:05:30.194Z,85.90
2018-05-12T20:07:59.179Z,87.90
2018-05-12T20:10:26.681Z,87.90
2018-05-12T20:12:54.156Z,91.10
2018-05-12T20:15:21.671Z,90.80
2018-05-12T20:17:49.925Z,90.70
2018-05-12T20:20:17.542Z,90.70
2018-05-12T20:22:45.312Z,91.10
2018-05-12T20:25:12.927Z,91.90
2018-05-12T20:27:41.172Z,94.00
2018-05-12T20:30:08.725Z,94.00
2018-05-12T20:32:36.246Z,93.90
2018-05-12T20:35:04.176Z,95.60
2018-05-12T20:37:31.736Z,95.50
2018-05-12T20:39:59.155Z,97.20
2018-05-12T20:42:26.907Z,97.10
2018-05-12T20:44:54.671Z,97.60
2018-05-12T20:47:22.288Z,98.10
2018-05-12T20:49:50.531Z,98.40
2018-05-12T20:52:18.126Z,98.00
2018-05-12T20:54:46.405Z,99.20
2018-05-12T20:57:14.651Z,99.20
2018-05-12T20:59:42.151Z,99.10
2018-05-12T21:02:09.730Z,99.50
2018-05-12T21:04:37.504Z,99.90
2018-05-12T21:07:05.052Z,99.90
2018-05-12T21:09:32.527Z,99.90
2018-05-12T21:12:00.241Z,99.90
2018-05-12T21:14:28.760Z,99.90
2018-05-12T21:17:00.297Z,99.90
2018-05-12T21:19:28.091Z,99.90
2018-05-12T21:21:55.840Z,99.90
2018-05-12T21:24:23.355Z,99.90
2018-05-12T21:26:51.604Z,99.90
2018-05-12T21:29:20.697Z,99.90
2018-05-12T21:31:49.695Z,99.90
2018-05-12T21:34:17.396Z,99.90
2018-05-12T21:36:44.942Z,99.90
2018-05-12T21:39:13.212Z,99.90
2018-05-12T21:41:41.488Z,99.90
2018-05-12T21:44:10.017Z,99.90
2018-05-12T21:46:37.532Z,99.90
2018-05-12T21:49:05.811Z,99.90
2018-05-12T21:51:34.119Z,99.90
2018-05-12T21:54:01.612Z,99.90
2018-05-12T21:56:29.099Z,99.90
2018-05-12T21:58:57.631Z,99.90
2018-05-12T22:01:25.135Z,99.90
2018-05-12T22:03:53.384Z,99.90
2018-05-12T22:06:20.876Z,99.90
2018-05-12T22:08:49.122Z,99.90
2018-05-12T22:11:16.615Z,99.90
2018-05-12T22:13:44.857Z,99.90
2018-05-12T22:16:12.336Z,99.90
2018-05-12T22:18:40.644Z,99.90
2018-05-12T22:21:08.848Z,99.90
2018-05-12T22:23:36.350Z,99.90
2018-05-12T22:26:03.839Z,99.90
2018-05-12T22:28:31.315Z,99.90
2018-05-12T22:30:59.064Z,99.90
2018-05-12T22:33:26.536Z,99.90
2018-05-12T22:35:54.033Z,99.90
2018-05-12T22:38:22.280Z,99.90
2018-05-12T22:40:49.755Z,99.90
2018-05-12T22:43:17.548Z,99.90
2018-05-12T22:45:45.026Z,99.90
2018-05-12T22:48:12.536Z,99.90
2018-05-12T22:50:40.104Z,99.90
2018-05-12T22:53:08.604Z,99.90
2018-05-12T22:55:36.148Z,99.90
2018-05-12T22:58:04.392Z,99.90
2018-05-12T23:00:31.888Z,99.90
2018-05-12T23:03:00.171Z,99.90
2018-05-12T23:05:27.655Z,99.90
2018-05-12T23:07:55.143Z,99.90
2018-05-12T23:10:22.619Z,99.90
2018-05-12T23:12:50.291Z,99.90
2018-05-12T23:15:18.588Z,99.90
2018-05-12T23:17:46.088Z,99.90
2018-05-12T23:20:13.564Z,99.90
2018-05-12T23:22:47.009Z,99.90
2018-05-12T23:25:14.488Z,99.90
2018-05-12T23:27:42.072Z,99.90
2018-05-12T23:30:09.566Z,99.90
2018-05-12T23:32:37.046Z,99.90
2018-05-12T23:35:04.564Z,99.90
2018-05-12T23:37:32.811Z,99.90
2018-05-12T23:40:00.503Z,99.90
2018-05-12T23:42:28.807Z,99.90
2018-05-12T23:44:57.020Z,99.90
2018-05-12T23:47:24.519Z,99.90
2018-05-12T23:49:52.779Z,99.90
2018-05-12T23:52:21.019Z,99.90
2018-05-12T23:54:48.508Z,99.90
2018-05-12T23:57:16.220Z,99.90
2018-05-12T23:59:43.715Z,99.90
